Benvenuto, Ospite
Nome utente: Password: Ricordami

SWOSIT! ha 3356 utenti registrati

Lista Utenti

# Stato Avatar Nome utente Posts Karma Date d\'inizio Ultimo accesso Visualizzazioni
151 OFFLINE Avatar di Pinturicchio Pinturicchio 0 0 06/09/2014 00:00 08/09/2014 19:31 174
152 OFFLINE Avatar di AndyH1977 AndyH1977 6 0 06/09/2014 22:32 17/01/2016 20:27 225
153 OFFLINE Avatar di gpex78 gpex78 1 0 08/09/2014 13:54 24/11/2017 15:17 242
154 OFFLINE Avatar di Gabbo82 Gabbo82 16 0 08/09/2014 22:47 04/08/2017 09:58 442
155 OFFLINE Avatar di tororosso27 tororosso27 1 0 09/09/2014 16:27 03/10/2017 15:01 287
156 OFFLINE Avatar di fix fix 1 0 11/09/2014 16:28 15/09/2014 15:50 182
157 OFFLINE Avatar di hamlet hamlet 2 0 11/09/2014 17:56 19/10/2014 21:01 269
158 OFFLINE Avatar di bastascherzi bastascherzi 29 1 13/09/2014 15:24 23/04/2015 23:19 512
159 OFFLINE Avatar di maximreality maximreality 7 0 13/09/2014 17:42 18/10/2014 21:26 281
160 OFFLINE Avatar di Fedeweb Fedeweb 23 0 19/09/2014 14:04 21/10/2014 09:56 316
161 OFFLINE Avatar di dior dior 7 0 19/09/2014 16:32 19/05/2016 23:02 370
162 OFFLINE Avatar di peppemariomarzia peppemariomarzia 0 0 19/09/2014 17:26 19/09/2014 17:26 191
163 OFFLINE Avatar di splitthetris splitthetris 0 0 20/09/2014 00:10 20/09/2014 17:31 183
164 OFFLINE Avatar di Specksynder Specksynder 8 0 23/09/2014 17:01 10/04/2021 16:53 330
165 OFFLINE Avatar di _sox_ _sox_ 13 1 24/09/2014 11:09 26/03/2020 18:15 342
166 OFFLINE Avatar di ElMichaJ ElMichaJ 0 0 26/09/2014 22:46 05/10/2014 20:48 199
167 OFFLINE Avatar di lorenzob84 lorenzob84 1 0 01/10/2014 21:42 03/10/2014 14:07 266
168 OFFLINE Avatar di Seikiki Seikiki 494 33 02/10/2014 22:31 18/04/2021 13:34 1164
169 OFFLINE Avatar di gianni gianni 0 0 03/10/2014 13:50 09/10/2014 00:04 231
170 OFFLINE Avatar di simonefla simonefla 802 15 03/10/2014 16:33 18/04/2021 18:11 1288
171 OFFLINE Avatar di marcoman marcoman 0 0 06/10/2014 23:38 07/10/2014 11:26 260
172 OFFLINE Avatar di MadnessTiger MadnessTiger 0 0 08/10/2014 18:59 08/10/2014 19:26 187
173 OFFLINE Avatar di Pramozzz Pramozzz 4 0 08/10/2014 22:30 15/01/2015 21:03 256
174 OFFLINE Avatar di Luciano Luciano 0 0 14/10/2014 15:11 14/10/2014 16:41 182
175 OFFLINE Avatar di Zerolosko Zerolosko 1 0 15/10/2014 12:24 13/05/2018 00:17 229
176 OFFLINE Avatar di indigitale indigitale 0 0 24/10/2014 18:14 31/07/2020 14:46 162
177 OFFLINE Avatar di mauricioshogun mauricioshogun 0 0 26/10/2014 08:46 27/10/2014 22:24 158
178 OFFLINE Avatar di motolo79 motolo79 0 0 26/10/2014 22:23 10/11/2016 10:52 171
179 OFFLINE Avatar di CruSKA CruSKA 1022 6 26/10/2014 22:31 Ieri 22:00 1017
180 OFFLINE Avatar di jj_ jj_ 19 0 26/10/2014 23:46 11/05/2016 23:26 336

Chi è online

Totale utenti online :: 2 Utenti e 139 Ospiti Online
Legenda:  Amministratore Moderatore globale Moderatore Bannato Utente Ospite
Tempo creazione pagina: 0.229 secondi

Visitando questo sito web si autorizza l'utilizzo e l'impiego di cookie. To find out more about the cookies we use and how to delete them, see our privacy policy.

  I accept cookies from this site.
EU Cookie Directive plugin by www.channeldigital.co.uk